Time,TemperatureF,DewpointF,PressureIn,WindDirection,WindDirectionDegrees,WindSpeedMPH,WindSpeedGustMPH,Humidity,HourlyPrecipIn,Conditions,Clouds,dailyrainin,SoftwareType,DateUTC
2013-05-11 00:00:00,39.7,35.8,29.97,SE,135,0.0,0.0,86,0.00,,,0.00,WUHU21636XXSP,2013-05-11 04:00:00,
2013-05-11 00:01:00,39.7,35.8,29.97,SE,135,0.0,0.0,86,0.00,,,0.00,WUHU21636XXSP,2013-05-11 04:01:00,
2013-05-11 00:06:00,39.7,35.8,29.97,SE,135,0.0,0.0,86,0.00,,,0.00,WUHU21636XXSP,2013-05-11 04:06:00,
2013-05-11 00:11:00,39.7,35.8,29.97,SE,135,0.0,0.0,86,0.00,,,0.00,WUHU21636XXSP,2013-05-11 04:11:00,
2013-05-11 00:16:00,39.7,35.8,29.97,SE,135,0.0,0.0,86,0.00,,,0.00,WUHU21636XXSP,2013-05-11 04:16:00,
2013-05-11 00:21:00,39.9,36.0,29.97,SE,135,0.0,0.0,87,0.00,,,0.00,WUHU21636XXSP,2013-05-11 04:21:00,
2013-05-11 00:26:00,39.9,36.0,29.96,SE,135,0.0,0.0,87,0.00,,,0.00,WUHU21636XXSP,2013-05-11 04:26:00,
2013-05-11 00:31:00,39.9,36.0,29.96,SE,135,0.0,0.0,86,0.00,,,0.00,WUHU21636XXSP,2013-05-11 04:31:00,
2013-05-11 00:36:00,39.9,36.0,29.96,SE,135,0.0,0.0,86,0.00,,,0.00,WUHU21636XXSP,2013-05-11 04:36:00,
2013-05-11 00:41:00,39.9,36.0,29.95,SE,135,0.0,0.0,86,0.00,,,0.00,WUHU21636XXSP,2013-05-11 04:41:00,
2013-05-11 00:46:00,39.7,35.8,29.95,SE,135,0.0,0.0,86,0.00,,,0.00,WUHU21636XXSP,2013-05-11 04:46:00,
2013-05-11 00:51:00,39.7,35.8,29.95,SE,135,0.0,0.0,86,0.00,,,0.00,WUHU21636XXSP,2013-05-11 04:51:00,
2013-05-11 00:56:00,39.7,35.8,29.95,SE,135,0.0,0.0,86,0.00,,,0.00,WUHU21636XXSP,2013-05-11 04:56:00,
2013-05-11 01:01:00,39.7,35.8,29.95,SE,135,0.0,0.0,86,0.00,,,0.00,WUHU21636XXSP,2013-05-11 05:01:00,
2013-05-11 01:06:00,39.7,35.8,29.95,SE,135,0.0,0.0,86,0.00,,,0.00,WUHU21636XXSP,2013-05-11 05:06:00,
2013-05-11 01:11:00,39.7,35.8,29.95,SE,135,0.0,0.0,86,0.00,,,0.00,WUHU21636XXSP,2013-05-11 05:11:00,
2013-05-11 01:16:00,39.7,35.8,29.94,SE,135,0.0,0.0,86,0.00,,,0.00,WUHU21636XXSP,2013-05-11 05:16:00,
2013-05-11 01:21:00,39.7,35.8,29.94,SE,135,0.0,0.0,86,0.00,,,0.00,WUHU21636XXSP,2013-05-11 05:21:00,
2013-05-11 01:26:00,39.7,35.8,29.93,SE,135,0.0,0.0,86,0.00,,,0.00,WUHU21636XXSP,2013-05-11 05:26:00,
2013-05-11 01:31:00,39.7,35.8,29.93,SE,135,0.0,0.0,86,0.00,,,0.00,WUHU21636XXSP,2013-05-11 05:31:00,
2013-05-11 01:36:00,39.7,35.8,29.93,SE,135,0.0,0.0,86,0.00,,,0.00,WUHU21636XXSP,2013-05-11 05:36:00,
2013-05-11 01:41:00,39.7,35.8,29.93,SE,135,0.0,0.0,86,0.00,,,0.00,WUHU21636XXSP,2013-05-11 05:41:00,
2013-05-11 01:46:00,39.6,35.6,29.93,SE,135,0.0,0.0,86,0.00,,,0.00,WUHU21636XXSP,2013-05-11 05:46:00,
2013-05-11 01:51:00,39.6,35.6,29.93,SE,135,0.0,0.0,86,0.00,,,0.00,WUHU21636XXSP,2013-05-11 05:51:00,
2013-05-11 01:56:00,39.4,35.4,29.93,SE,135,0.0,0.0,87,0.00,,,0.00,WUHU21636XXSP,2013-05-11 05:56:00,
2013-05-11 02:01:00,39.2,35.6,29.93,SE,135,0.0,0.0,87,0.00,,,0.00,WUHU21636XXSP,2013-05-11 06:01:00,
2013-05-11 02:06:00,38.8,35.2,29.93,SE,135,0.0,0.0,87,0.00,,,0.00,WUHU21636XXSP,2013-05-11 06:06:00,
2013-05-11 02:11:00,38.7,35.1,29.92,SE,135,0.0,0.0,87,0.00,,,0.00,WUHU21636XXSP,2013-05-11 06:11:00,
2013-05-11 02:16:00,38.1,34.5,29.93,SE,135,0.0,0.0,87,0.00,,,0.00,WUHU21636XXSP,2013-05-11 06:16:00,
2013-05-11 02:21:00,37.8,34.2,29.92,SE,135,0.0,0.0,87,0.00,,,0.00,WUHU21636XXSP,2013-05-11 06:21:00,
2013-05-11 02:26:00,37.4,33.8,29.92,SE,135,0.0,0.0,87,0.00,,,0.00,WUHU21636XXSP,2013-05-11 06:26:00,
2013-05-11 02:31:00,37.0,33.1,29.92,SE,135,0.0,0.0,86,0.00,,,0.00,WUHU21636XXSP,2013-05-11 06:31:00,
2013-05-11 02:36:00,36.5,32.5,29.92,SE,135,0.0,0.0,86,0.00,,,0.00,WUHU21636XXSP,2013-05-11 06:36:00,
2013-05-11 02:41:00,36.0,32.0,29.92,SE,135,0.0,0.0,86,0.00,,,0.00,WUHU21636XXSP,2013-05-11 06:41:00,
2013-05-11 02:46:00,35.6,32.0,29.92,SE,135,0.0,0.0,87,0.00,,,0.00,WUHU21636XXSP,2013-05-11 06:46:00,
2013-05-11 02:51:00,35.2,31.6,29.91,SE,135,0.0,0.0,87,0.00,,,0.00,WUHU21636XXSP,2013-05-11 06:51:00,
2013-05-11 02:56:00,35.2,31.6,29.91,SE,135,0.0,0.0,87,0.00,,,0.00,WUHU21636XXSP,2013-05-11 06:56:00,
2013-05-11 03:01:00,35.1,31.5,29.91,SE,135,0.0,0.0,87,0.00,,,0.00,WUHU21636XXSP,2013-05-11 07:01:00,
2013-05-11 03:06:00,34.5,30.9,29.91,SE,135,0.0,0.0,87,0.00,,,0.00,WUHU21636XXSP,2013-05-11 07:06:00,
2013-05-11 03:11:00,34.5,30.9,29.90,SE,135,0.0,0.0,87,0.00,,,0.00,WUHU21636XXSP,2013-05-11 07:11:00,
2013-05-11 03:16:00,34.3,30.7,29.90,SE,135,0.0,0.0,87,0.00,,,0.00,WUHU21636XXSP,2013-05-11 07:16:00,
2013-05-11 03:21:00,34.0,30.4,29.90,SE,135,0.0,0.0,87,0.00,,,0.00,WUHU21636XXSP,2013-05-11 07:21:00,
2013-05-11 03:26:00,33.8,30.2,29.90,SE,135,0.0,0.0,87,0.00,,,0.00,WUHU21636XXSP,2013-05-11 07:26:00,
2013-05-11 03:31:00,33.4,29.8,29.90,SE,135,0.0,0.0,87,0.00,,,0.00,WUHU21636XXSP,2013-05-11 07:31:00,
2013-05-11 03:36:00,33.1,29.5,29.90,SE,135,0.0,0.0,87,0.00,,,0.00,WUHU21636XXSP,2013-05-11 07:36:00,
2013-05-11 03:41:00,33.1,29.5,29.90,SE,135,0.0,0.0,87,0.00,,,0.00,WUHU21636XXSP,2013-05-11 07:41:00,
2013-05-11 03:46:00,33.1,29.5,29.90,SE,135,0.0,0.0,88,0.00,,,0.00,WUHU21636XXSP,2013-05-11 07:46:00,
2013-05-11 03:51:00,33.1,29.5,29.90,SE,135,0.0,0.0,88,0.00,,,0.00,WUHU21636XXSP,2013-05-11 07:51:00,
2013-05-11 03:56:00,32.9,29.7,29.90,SE,135,0.0,0.0,88,0.00,,,0.00,WUHU21636XXSP,2013-05-11 07:56:00,
2013-05-11 04:01:00,32.5,29.3,29.90,SE,135,0.0,0.0,88,0.00,,,0.00,WUHU21636XXSP,2013-05-11 08:01:00,
2013-05-11 04:06:00,32.5,29.3,29.90,SE,135,0.0,0.0,88,0.00,,,0.00,WUHU21636XXSP,2013-05-11 08:06:00,
2013-05-11 04:11:00,32.5,29.3,29.90,SE,135,0.0,0.0,88,0.00,,,0.00,WUHU21636XXSP,2013-05-11 08:11:00,
2013-05-11 04:16:00,32.5,29.3,29.90,SE,135,0.0,0.0,88,0.00,,,0.00,WUHU21636XXSP,2013-05-11 08:16:00,
2013-05-11 04:21:00,32.5,29.3,29.90,SE,135,0.0,0.0,88,0.00,,,0.00,WUHU21636XXSP,2013-05-11 08:21:00,
2013-05-11 04:26:00,32.5,29.3,29.90,SE,135,0.0,0.0,88,0.00,,,0.00,WUHU21636XXSP,2013-05-11 08:26:00,
2013-05-11 04:31:00,32.5,29.3,29.90,SE,135,0.0,0.0,88,0.00,,,0.00,WUHU21636XXSP,2013-05-11 08:31:00,
2013-05-11 04:36:00,32.5,29.3,29.90,SE,135,0.0,0.0,88,0.00,,,0.00,WUHU21636XXSP,2013-05-11 08:36:00,
2013-05-11 04:41:00,32.4,29.1,29.89,SE,135,0.0,0.0,88,0.00,,,0.00,WUHU21636XXSP,2013-05-11 08:41:00,
2013-05-11 04:46:00,32.4,29.1,29.89,SE,135,0.0,0.0,88,0.00,,,0.00,WUHU21636XXSP,2013-05-11 08:46:00,
2013-05-11 04:51:00,32.4,29.1,29.89,SE,135,0.0,0.0,88,0.00,,,0.00,WUHU21636XXSP,2013-05-11 08:51:00,
2013-05-11 04:56:00,32.4,29.1,29.88,SE,135,0.0,0.0,88,0.00,,,0.00,WUHU21636XXSP,2013-05-11 08:56:00,
2013-05-11 05:01:00,32.2,28.9,29.88,SE,135,0.0,0.0,88,0.00,,,0.00,WUHU21636XXSP,2013-05-11 09:01:00,
2013-05-11 05:06:00,32.0,28.8,29.88,SE,135,0.0,0.0,88,0.00,,,0.00,WUHU21636XXSP,2013-05-11 09:06:00,
2013-05-11 05:11:00,31.8,28.6,29.88,SE,135,0.0,0.0,88,0.00,,,0.00,WUHU21636XXSP,2013-05-11 09:11:00,
2013-05-11 05:16:00,32.0,28.8,29.88,SE,135,0.0,0.0,88,0.00,,,0.00,WUHU21636XXSP,2013-05-11 09:16:00,
2013-05-11 05:21:00,32.0,28.8,29.88,SE,135,0.0,0.0,88,0.00,,,0.00,WUHU21636XXSP,2013-05-11 09:21:00,
2013-05-11 05:26:00,32.0,28.8,29.87,SE,135,0.0,0.0,88,0.00,,,0.00,WUHU21636XXSP,2013-05-11 09:26:00,
2013-05-11 05:31:00,31.8,28.6,29.88,SE,135,0.0,0.0,88,0.00,,,0.00,WUHU21636XXSP,2013-05-11 09:31:00,
2013-05-11 05:36:00,31.6,28.4,29.88,SE,135,0.0,0.0,88,0.00,,,0.00,WUHU21636XXSP,2013-05-11 09:36:00,
2013-05-11 05:41:00,31.6,28.4,29.88,SE,135,0.0,0.0,88,0.00,,,0.00,WUHU21636XXSP,2013-05-11 09:41:00,
2013-05-11 05:46:00,31.5,28.2,29.88,SE,135,0.0,0.0,88,0.00,,,0.00,WUHU21636XXSP,2013-05-11 09:46:00,
2013-05-11 05:51:00,31.3,28.0,29.88,SE,135,0.0,0.0,88,0.00,,,0.00,WUHU21636XXSP,2013-05-11 09:51:00,
2013-05-11 05:56:00,31.3,28.0,29.87,SE,135,0.0,0.0,88,0.00,,,0.00,WUHU21636XXSP,2013-05-11 09:56:00,
2013-05-11 06:01:00,31.1,27.9,29.87,SE,135,0.0,0.0,88,0.00,,,0.00,WUHU21636XXSP,2013-05-11 10:01:00,
2013-05-11 06:06:00,31.3,28.0,29.87,SE,135,0.0,0.0,88,0.00,,,0.00,WUHU21636XXSP,2013-05-11 10:06:00,
2013-05-11 06:11:00,31.6,28.4,29.87,SE,135,0.0,0.0,88,0.00,,,0.00,WUHU21636XXSP,2013-05-11 10:11:00,
2013-05-11 06:17:00,31.6,28.4,29.86,SE,135,0.0,0.0,88,0.00,,,0.00,WUHU21636XXSP,2013-05-11 10:17:00,
2013-05-11 06:21:00,31.8,28.6,29.86,SE,135,0.0,0.0,88,0.00,,,0.00,WUHU21636XXSP,2013-05-11 10:21:00,
2013-05-11 06:26:00,31.8,28.6,29.86,SE,135,0.0,0.0,88,0.00,,,0.00,WUHU21636XXSP,2013-05-11 10:26:00,
2013-05-11 06:31:00,31.8,28.6,29.86,SE,135,0.0,0.0,88,0.00,,,0.00,WUHU21636XXSP,2013-05-11 10:31:00,
2013-05-11 06:36:00,31.6,28.4,29.86,SE,135,0.0,0.0,88,0.00,,,0.00,WUHU21636XXSP,2013-05-11 10:36:00,
2013-05-11 06:41:00,31.6,28.4,29.87,SE,135,0.0,0.0,88,0.00,,,0.00,WUHU21636XXSP,2013-05-11 10:41:00,
2013-05-11 06:46:00,31.5,28.2,29.86,SE,135,0.0,0.0,88,0.00,,,0.00,WUHU21636XXSP,2013-05-11 10:46:00,
2013-05-11 06:51:00,31.6,28.4,29.86,SE,135,0.0,0.0,88,0.00,,,0.00,WUHU21636XXSP,2013-05-11 10:51:00,
2013-05-11 06:56:00,31.6,28.4,29.86,SE,135,0.0,0.0,88,0.00,,,0.00,WUHU21636XXSP,2013-05-11 10:56:00,
2013-05-11 07:01:00,31.8,28.6,29.86,SE,135,0.0,0.0,88,0.00,,,0.00,WUHU21636XXSP,2013-05-11 11:01:00,
2013-05-11 07:06:00,31.8,28.6,29.86,SE,135,0.0,0.0,88,0.00,,,0.00,WUHU21636XXSP,2013-05-11 11:06:00,
2013-05-11 07:11:00,31.8,28.6,29.86,SE,135,0.0,0.0,88,0.00,,,0.00,WUHU21636XXSP,2013-05-11 11:11:00,
2013-05-11 07:16:00,31.8,28.6,29.85,SE,135,0.0,0.0,88,0.00,,,0.00,WUHU21636XXSP,2013-05-11 11:16:00,
2013-05-11 07:21:00,32.2,29.3,29.86,SE,135,0.0,0.0,89,0.00,,,0.00,WUHU21636XXSP,2013-05-11 11:21:00,
2013-05-11 07:27:00,32.4,29.5,29.85,SE,135,0.0,0.0,89,0.00,,,0.00,WUHU21636XXSP,2013-05-11 11:27:00,
2013-05-11 07:31:00,32.5,29.7,29.85,SE,135,0.0,0.0,89,0.00,,,0.00,WUHU21636XXSP,2013-05-11 11:31:00,
2013-05-11 07:37:00,32.9,29.8,29.85,SE,135,0.0,0.0,89,0.00,,,0.00,WUHU21636XXSP,2013-05-11 11:37:00,
2013-05-11 07:42:00,33.1,30.0,29.85,SE,135,0.0,0.0,89,0.00,,,0.00,WUHU21636XXSP,2013-05-11 11:42:00,
2013-05-11 07:47:00,33.4,30.4,29.85,SE,135,0.0,0.0,89,0.00,,,0.00,WUHU21636XXSP,2013-05-11 11:47:00,
2013-05-11 07:52:00,33.8,30.7,29.85,SE,135,0.0,0.0,89,0.00,,,0.00,WUHU21636XXSP,2013-05-11 11:52:00,
2013-05-11 07:57:00,34.5,31.5,29.85,SE,135,0.0,0.0,89,0.00,,,0.00,WUHU21636XXSP,2013-05-11 11:57:00,
2013-05-11 08:02:00,35.4,32.0,29.84,SSE,157,1.7,1.7,88,0.00,,,0.00,WUHU21636XXSP,2013-05-11 12:02:00,
2013-05-11 08:07:00,37.0,34.0,29.84,SSE,157,2.4,3.3,89,0.00,,,0.00,WUHU21636XXSP,2013-05-11 12:07:00,
2013-05-11 08:12:00,37.6,34.5,29.84,SSE,157,2.9,3.3,89,0.00,,,0.00,WUHU21636XXSP,2013-05-11 12:12:00,
2013-05-11 08:17:00,37.8,34.7,29.84,SSE,157,0.0,3.3,89,0.00,,,0.00,WUHU21636XXSP,2013-05-11 12:17:00,
2013-05-11 08:22:00,37.9,34.9,29.84,South,180,3.3,6.7,89,0.00,,,0.00,WUHU21636XXSP,2013-05-11 12:22:00,
2013-05-11 08:27:00,38.1,35.1,29.84,SSW,202,3.3,6.7,89,0.00,,,0.00,WUHU21636XXSP,2013-05-11 12:27:00,
2013-05-11 08:32:00,38.5,35.4,29.84,SSE,157,3.3,6.4,89,0.00,,,0.00,WUHU21636XXSP,2013-05-11 12:32:00,
2013-05-11 08:37:00,38.5,35.4,29.84,South,180,0.0,3.3,89,0.00,,,0.00,WUHU21636XXSP,2013-05-11 12:37:00,
2013-05-11 08:42:00,38.8,35.8,29.84,South,180,3.1,3.3,89,0.00,,,0.00,WUHU21636XXSP,2013-05-11 12:42:00,
2013-05-11 08:47:00,39.4,36.3,29.84,SW,225,6.7,7.8,89,0.00,,,0.00,WUHU21636XXSP,2013-05-11 12:47:00,
2013-05-11 08:52:00,39.7,36.3,29.83,WSW,247,2.6,14.0,88,0.00,,,0.00,WUHU21636XXSP,2013-05-11 12:52:00,
2013-05-11 08:57:00,40.1,36.7,29.83,SSW,202,2.9,14.0,88,0.00,,,0.00,WUHU21636XXSP,2013-05-11 12:57:00,
2013-05-11 09:02:00,40.3,36.9,29.83,South,180,0.0,8.7,88,0.00,,,0.00,WUHU21636XXSP,2013-05-11 13:02:00,
2013-05-11 09:07:00,40.8,37.0,29.82,SW,225,6.4,8.7,87,0.00,,,0.00,WUHU21636XXSP,2013-05-11 13:07:00,
2013-05-11 09:12:00,41.9,38.1,29.83,West,270,0.0,6.9,87,0.00,,,0.00,WUHU21636XXSP,2013-05-11 13:12:00,
2013-05-11 09:17:00,42.3,37.9,29.83,SSW,202,3.3,6.4,85,0.00,,,0.00,WUHU21636XXSP,2013-05-11 13:17:00,
2013-05-11 09:22:00,42.4,38.1,29.82,South,180,0.0,3.5,85,0.00,,,0.00,WUHU21636XXSP,2013-05-11 13:22:00,
2013-05-11 09:27:00,42.6,37.8,29.82,SW,225,4.0,4.2,83,0.00,,,0.00,WUHU21636XXSP,2013-05-11 13:27:00,
2013-05-11 09:32:00,42.6,37.4,29.82,SSW,202,2.9,4.2,82,0.00,,,0.00,WUHU21636XXSP,2013-05-11 13:32:00,
2013-05-11 09:37:00,42.8,37.6,29.82,SSW,202,3.8,4.0,83,0.00,,,0.00,WUHU21636XXSP,2013-05-11 13:37:00,
2013-05-11 09:42:00,43.2,38.3,29.81,SW,225,0.0,3.8,83,0.00,,,0.00,WUHU21636XXSP,2013-05-11 13:42:00,
2013-05-11 09:47:00,43.3,38.5,29.81,South,180,0.0,3.8,82,0.00,,,0.00,WUHU21636XXSP,2013-05-11 13:47:00,
2013-05-11 09:52:00,43.9,38.7,29.81,SW,225,4.0,7.6,82,0.00,,,0.00,WUHU21636XXSP,2013-05-11 13:52:00,
2013-05-11 09:57:00,44.2,39.0,29.80,SSE,157,5.3,10.5,82,0.00,,,0.00,WUHU21636XXSP,2013-05-11 13:57:00,
2013-05-11 10:02:00,44.8,39.2,29.80,SSW,202,3.5,10.5,81,0.00,,,0.00,WUHU21636XXSP,2013-05-11 14:02:00,
2013-05-11 10:07:00,45.3,39.6,29.80,SSE,157,4.4,5.3,80,0.00,,,0.00,WUHU21636XXSP,2013-05-11 14:07:00,
2013-05-11 10:12:00,45.7,40.1,29.79,SW,225,0.0,6.4,81,0.00,,,0.00,WUHU21636XXSP,2013-05-11 14:12:00,
2013-05-11 10:17:00,46.0,40.3,29.79,South,180,3.8,6.4,80,0.00,,,0.00,WUHU21636XXSP,2013-05-11 14:17:00,
2013-05-11 10:22:00,46.2,40.1,29.78,SW,225,2.9,4.0,79,0.00,,,0.00,WUHU21636XXSP,2013-05-11 14:22:00,
2013-05-11 10:27:00,46.6,40.6,29.78,SSE,157,6.2,6.2,80,0.00,,,0.00,WUHU21636XXSP,2013-05-11 14:27:00,
2013-05-11 10:32:00,46.8,40.8,29.77,SSE,157,3.5,7.3,80,0.00,,,0.00,WUHU21636XXSP,2013-05-11 14:32:00,
2013-05-11 10:37:00,46.9,41.0,29.77,South,180,2.6,7.3,79,0.00,,,0.00,WUHU21636XXSP,2013-05-11 14:37:00,
2013-05-11 10:42:00,47.3,41.4,29.77,SW,225,4.6,4.6,80,0.00,,,0.00,WUHU21636XXSP,2013-05-11 14:42:00,
2013-05-11 10:47:00,48.0,42.3,29.77,SW,225,3.1,4.6,81,0.00,,,0.00,WUHU21636XXSP,2013-05-11 14:47:00,
2013-05-11 10:52:00,48.9,42.3,29.77,SW,225,4.6,16.3,78,0.00,,,0.00,WUHU21636XXSP,2013-05-11 14:52:00,
2013-05-11 10:56:00,49.5,42.8,29.77,WSW,247,2.0,16.3,78,0.00,,,0.00,WUHU21636XXSP,2013-05-11 14:56:00,
2013-05-11 11:01:00,49.5,42.1,29.76,South,180,0.4,11.1,76,0.00,,,0.00,WUHU21636XXSP,2013-05-11 15:01:00,
2013-05-11 11:06:00,50.2,43.5,29.76,SW,225,4.4,4.6,78,0.00,,,0.00,WUHU21636XXSP,2013-05-11 15:06:00,
2013-05-11 11:11:00,50.9,42.8,29.76,SW,225,4.9,7.6,74,0.00,,,0.00,WUHU21636XXSP,2013-05-11 15:11:00,
2013-05-11 11:16:00,50.2,42.4,29.76,WSW,247,4.6,23.0,75,0.00,,,0.00,WUHU21636XXSP,2013-05-11 15:16:00,
2013-05-11 11:21:00,49.6,42.3,29.77,NW,315,4.6,23.0,76,0.00,,,0.00,WUHU21636XXSP,2013-05-11 15:21:00,
2013-05-11 11:26:00,49.3,42.6,29.77,WNW,292,4.6,23.0,78,0.00,,,0.00,WUHU21636XXSP,2013-05-11 15:26:00,
2013-05-11 11:31:00,49.1,42.4,29.75,West,270,0.6,19.0,78,0.00,,,0.00,WUHU21636XXSP,2013-05-11 15:31:00,
2013-05-11 11:36:00,49.3,42.6,29.76,WNW,292,0.6,18.5,78,0.00,,,0.00,WUHU21636XXSP,2013-05-11 15:36:00,
2013-05-11 11:41:00,49.3,42.6,29.76,West,270,2.4,11.4,78,0.00,,,0.00,WUHU21636XXSP,2013-05-11 15:41:00,
2013-05-11 11:46:00,49.1,42.4,29.76,West,270,2.0,14.5,78,0.00,,,0.00,WUHU21636XXSP,2013-05-11 15:46:00,
2013-05-11 11:51:00,49.1,42.4,29.75,WSW,247,1.5,28.1,79,0.00,,,0.00,WUHU21636XXSP,2013-05-11 15:51:00,
2013-05-11 11:56:00,49.1,42.4,29.75,WSW,247,2.9,28.1,78,0.00,,,0.00,WUHU21636XXSP,2013-05-11 15:56:00,
2013-05-11 12:01:00,49.3,42.6,29.75,SW,225,3.5,3.5,78,0.00,,,0.00,WUHU21636XXSP,2013-05-11 16:01:00,
2013-05-11 12:06:00,48.9,42.3,29.75,WSW,247,2.9,3.8,78,0.00,,,0.00,WUHU21636XXSP,2013-05-11 16:06:00,
2013-05-11 12:11:00,48.9,42.3,29.75,WNW,292,0.4,3.8,80,0.00,,,0.00,WUHU21636XXSP,2013-05-11 16:11:00,
2013-05-11 12:16:00,48.9,42.3,29.75,WSW,247,1.7,3.3,79,0.00,,,0.00,WUHU21636XXSP,2013-05-11 16:16:00,
2013-05-11 12:21:00,48.6,42.6,29.75,WSW,247,9.3,10.2,80,0.00,,,0.00,WUHU21636XXSP,2013-05-11 16:21:00,
2013-05-11 12:26:00,48.0,42.3,29.75,NW,315,4.4,33.3,81,0.00,,,0.00,WUHU21636XXSP,2013-05-11 16:26:00,
2013-05-11 12:31:00,47.5,41.9,29.75,WSW,247,2.9,33.3,81,0.00,,,0.00,WUHU21636XXSP,2013-05-11 16:31:00,
2013-05-11 12:36:00,47.3,42.1,29.75,WNW,292,3.1,19.2,82,0.00,,,0.00,WUHU21636XXSP,2013-05-11 16:36:00,
2013-05-11 12:41:00,46.9,41.7,29.74,WSW,247,1.7,19.2,82,0.00,,,0.00,WUHU21636XXSP,2013-05-11 16:41:00,
2013-05-11 12:46:00,46.9,41.7,29.74,WNW,292,2.9,14.5,83,0.00,,,0.00,WUHU21636XXSP,2013-05-11 16:46:00,
2013-05-11 12:51:00,46.8,41.7,29.74,West,270,1.5,14.5,83,0.00,,,0.00,WUHU21636XXSP,2013-05-11 16:51:00,
2013-05-11 12:56:00,46.8,41.7,29.74,West,270,0.0,1.5,84,0.00,,,0.00,WUHU21636XXSP,2013-05-11 16:56:00,
2013-05-11 13:01:00,46.4,42.1,29.74,WNW,292,4.9,6.7,85,0.00,,,0.00,WUHU21636XXSP,2013-05-11 17:01:00,
2013-05-11 13:06:00,46.0,42.1,29.74,West,270,0.0,6.7,86,0.02,,,0.02,WUHU21636XXSP,2013-05-11 17:06:00,
2013-05-11 13:11:00,46.0,42.1,29.73,WSW,247,0.0,4.9,86,0.02,,,0.02,WUHU21636XXSP,2013-05-11 17:11:00,
2013-05-11 13:16:00,46.0,42.1,29.73,West,270,0.0,2.2,87,0.02,,,0.02,WUHU21636XXSP,2013-05-11 17:16:00,